createdAt,value
2022-12-27T00:00:08.519Z,5.08
2022-12-27T00:05:11.264Z,5.08
2022-12-27T00:10:12.775Z,4.87
2022-12-27T00:15:14.185Z,4.87
2022-12-27T00:20:15.802Z,4.87
2022-12-27T00:25:17.433Z,4.71
2022-12-27T00:30:19.212Z,4.77
2022-12-27T00:35:20.611Z,4.69
2022-12-27T00:40:22.078Z,4.73
2022-12-27T00:45:23.638Z,5.07
2022-12-27T00:50:25.095Z,5.04
2022-12-27T00:55:26.650Z,5.22
2022-12-27T01:00:28.169Z,5.20
2022-12-27T01:05:29.661Z,5.05
2022-12-27T01:10:31.429Z,5.22
2022-12-27T01:15:33.099Z,5.23
2022-12-27T01:20:34.590Z,5.25
2022-12-27T01:25:36.365Z,5.23
2022-12-27T01:30:37.806Z,5.26
2022-12-27T01:35:39.408Z,5.41
2022-12-27T01:40:41.167Z,5.49
2022-12-27T01:45:43.578Z,5.51
2022-12-27T01:50:49.275Z,5.70
2022-12-27T01:56:02.019Z,5.77
2022-12-27T02:01:11.097Z,5.77
2022-12-27T02:06:14.203Z,5.74
2022-12-27T02:11:17.838Z,5.56
2022-12-27T02:16:19.978Z,5.56
2022-12-27T02:21:39.637Z,5.47
2022-12-27T02:26:58.768Z,5.47
2022-12-27T02:32:10.935Z,5.66
2022-12-27T02:37:14.012Z,5.82
2022-12-27T02:42:17.158Z,5.67
2022-12-27T02:47:21.417Z,5.62
2022-12-27T02:52:50.194Z,5.56
2022-12-27T02:58:26.395Z,5.66
2022-12-27T03:03:30.682Z,5.60
2022-12-27T03:08:41.902Z,5.79
2022-12-27T03:13:55.370Z,5.62
2022-12-27T03:19:13.311Z,5.68
2022-12-27T03:24:18.363Z,5.46
2022-12-27T03:29:21.698Z,5.33
2022-12-27T03:34:31.475Z,5.43
2022-12-27T03:39:38.121Z,5.42
2022-12-27T03:44:40.291Z,5.53
2022-12-27T03:49:52.654Z,5.85
2022-12-27T03:54:55.170Z,5.67
2022-12-27T03:59:56.638Z,5.69
2022-12-27T04:04:58.983Z,5.62
2022-12-27T04:10:01.604Z,5.58
2022-12-27T04:15:03.423Z,5.52
2022-12-27T04:20:05.434Z,5.67
2022-12-27T04:25:07.245Z,5.56
2022-12-27T04:30:09.324Z,5.75
2022-12-27T04:35:10.837Z,5.77
2022-12-27T04:40:12.376Z,5.82
2022-12-27T04:45:15.527Z,5.97
2022-12-27T04:50:32.448Z,5.93
2022-12-27T04:55:34.130Z,5.93
2022-12-27T05:00:35.625Z,5.88
2022-12-27T05:05:38.156Z,6.18
2022-12-27T05:10:39.606Z,6.07
2022-12-27T05:15:41.243Z,6.06
2022-12-27T05:20:42.968Z,6.13
2022-12-27T05:25:46.222Z,6.08
2022-12-27T05:30:47.992Z,6.14
2022-12-27T05:35:49.477Z,6.26
2022-12-27T05:40:50.948Z,6.23
2022-12-27T05:45:52.644Z,6.26
2022-12-27T05:50:54.216Z,6.41
2022-12-27T05:55:56.894Z,6.41
2022-12-27T06:01:00.339Z,6.35
2022-12-27T06:06:03.442Z,6.26
2022-12-27T06:11:16.536Z,6.30
2022-12-27T06:16:19.206Z,6.15
2022-12-27T06:21:21.810Z,6.15
2022-12-27T06:26:25.697Z,5.99
2022-12-27T06:31:28.110Z,5.95
2022-12-27T06:36:29.810Z,5.83
2022-12-27T06:41:31.442Z,5.78
2022-12-27T06:46:33.057Z,5.74
2022-12-27T06:51:34.701Z,5.65
2022-12-27T06:56:36.659Z,5.44
2022-12-27T07:01:38.383Z,5.51
2022-12-27T07:06:40.045Z,5.64
2022-12-27T07:11:41.631Z,5.73
2022-12-27T07:16:43.231Z,5.54
2022-12-27T07:21:44.919Z,5.51
2022-12-27T07:26:46.544Z,5.42
2022-12-27T07:31:48.246Z,5.55
2022-12-27T07:36:50.043Z,5.53
2022-12-27T07:41:51.504Z,5.67
2022-12-27T07:46:53.004Z,5.72
2022-12-27T07:51:54.623Z,5.84
2022-12-27T07:56:56.163Z,5.82
2022-12-27T08:01:57.694Z,5.87
2022-12-27T08:07:08.802Z,5.91
2022-12-27T08:12:10.918Z,5.94
2022-12-27T08:17:19.553Z,5.99
2022-12-27T08:22:22.585Z,5.81
2022-12-27T08:27:24.979Z,5.76
2022-12-27T08:32:26.461Z,5.92
2022-12-27T08:37:28.150Z,6.00
2022-12-27T08:42:29.682Z,5.94
2022-12-27T08:47:31.182Z,5.97
2022-12-27T08:52:33.137Z,5.87
2022-12-27T08:57:34.621Z,6.00
2022-12-27T09:02:37.336Z,6.10
2022-12-27T09:07:38.951Z,6.12
2022-12-27T09:12:41.140Z,6.19
2022-12-27T09:17:42.599Z,6.41
2022-12-27T09:22:44.033Z,6.45
2022-12-27T09:27:45.622Z,6.59
2022-12-27T09:32:47.103Z,6.85
2022-12-27T09:37:48.686Z,6.97
2022-12-27T09:43:15.415Z,7.13
2022-12-27T09:48:35.015Z,7.11
2022-12-27T09:54:27.139Z,6.87
2022-12-27T09:59:42.574Z,6.85
2022-12-27T10:05:18.696Z,7.09
2022-12-27T10:17:34.167Z,6.84
2022-12-27T10:22:44.438Z,6.89
2022-12-27T10:27:47.732Z,7.11
2022-12-27T10:32:49.581Z,7.02
2022-12-27T10:37:51.040Z,7.15
2022-12-27T10:43:04.586Z,7.08
2022-12-27T10:48:12.062Z,6.85
2022-12-27T10:53:52.199Z,7.03
2022-12-27T10:59:04.574Z,6.98
2022-12-27T11:04:23.177Z,6.97
2022-12-27T11:09:31.130Z,7.03
2022-12-27T11:14:32.558Z,7.14
2022-12-27T11:19:34.138Z,7.23
2022-12-27T11:24:36.043Z,7.29
2022-12-27T11:29:38.378Z,7.36
2022-12-27T11:34:45.319Z,7.43
2022-12-27T11:39:47.829Z,7.36
2022-12-27T11:45:26.309Z,7.64
2022-12-27T11:50:27.848Z,7.66
2022-12-27T11:56:06.737Z,7.55
2022-12-27T12:01:35.954Z,7.57
2022-12-27T12:06:50.341Z,7.63
2022-12-27T12:12:21.106Z,7.67
2022-12-27T12:17:42.831Z,7.69
2022-12-27T12:23:24.384Z,7.72
2022-12-27T12:29:02.781Z,7.77
2022-12-27T12:34:42.795Z,7.80
2022-12-27T12:40:01.691Z,7.73
2022-12-27T12:45:31.132Z,7.91
2022-12-27T12:50:50.907Z,8.00
2022-12-27T12:56:06.480Z,8.01
2022-12-27T13:01:30.198Z,7.89
2022-12-27T13:07:19.674Z,7.98
2022-12-27T13:12:52.257Z,7.97
2022-12-27T13:18:22.736Z,7.88
2022-12-27T13:23:34.406Z,7.87
2022-12-27T13:29:08.090Z,7.83
2022-12-27T13:34:21.926Z,7.93
2022-12-27T13:39:45.222Z,7.94
2022-12-27T13:45:03.581Z,7.92
2022-12-27T13:50:37.404Z,7.89
2022-12-27T13:55:50.874Z,7.74
2022-12-27T14:01:30.393Z,7.66
2022-12-27T14:06:34.940Z,7.55
2022-12-27T14:12:17.792Z,7.39
2022-12-27T14:17:43.742Z,7.41
2022-12-27T14:23:22.662Z,7.48
2022-12-27T14:29:01.755Z,7.51
2022-12-27T14:34:21.143Z,7.45
2022-12-27T14:39:37.866Z,7.48
2022-12-27T14:45:05.231Z,7.46
2022-12-27T14:50:43.965Z,7.47
2022-12-27T14:55:54.355Z,7.48
2022-12-27T15:00:58.703Z,7.39
2022-12-27T15:06:32.987Z,7.39
2022-12-27T15:11:56.496Z,7.53
2022-12-27T15:17:16.434Z,7.43
2022-12-27T15:22:25.336Z,7.44
2022-12-27T15:27:40.954Z,7.38
2022-12-27T15:33:40.015Z,7.30
2022-12-27T15:38:53.348Z,7.19
2022-12-27T15:44:18.694Z,7.16
2022-12-27T15:49:47.786Z,7.09
2022-12-27T15:55:07.198Z,7.09
2022-12-27T16:00:23.638Z,7.07
2022-12-27T16:05:25.161Z,7.02
2022-12-27T16:10:32.830Z,6.99
2022-12-27T16:15:34.255Z,6.99
2022-12-27T16:20:35.811Z,7.01
2022-12-27T16:25:39.527Z,6.93
2022-12-27T16:30:44.973Z,6.95
2022-12-27T16:35:46.611Z,6.95
2022-12-27T16:40:54.286Z,6.93
2022-12-27T16:46:09.206Z,6.80
2022-12-27T16:51:23.240Z,6.93
2022-12-27T16:56:30.541Z,6.95
2022-12-27T17:01:34.893Z,6.97
2022-12-27T17:06:36.452Z,6.71
2022-12-27T17:11:49.997Z,7.04
2022-12-27T17:16:57.166Z,6.89
2022-12-27T17:22:03.243Z,7.04
2022-12-27T17:27:13.983Z,7.01
2022-12-27T17:32:26.789Z,7.02
2022-12-27T17:37:57.521Z,7.04
2022-12-27T17:43:17.676Z,6.95
2022-12-27T17:48:26.636Z,6.88
2022-12-27T17:53:28.670Z,6.97
2022-12-27T17:58:34.498Z,7.06
2022-12-27T18:03:39.437Z,6.93
2022-12-27T18:08:40.868Z,6.95
2022-12-27T18:13:54.227Z,6.88
2022-12-27T18:18:55.787Z,6.72
2022-12-27T18:23:57.742Z,6.65
2022-12-27T18:28:59.409Z,6.49
2022-12-27T18:34:06.227Z,6.53
2022-12-27T18:39:17.229Z,6.66
2022-12-27T18:44:27.462Z,6.31
2022-12-27T18:49:36.934Z,6.37
2022-12-27T18:54:39.202Z,6.19
2022-12-27T18:59:41.105Z,6.18
2022-12-27T19:04:42.544Z,6.21
2022-12-27T19:09:53.833Z,6.30
2022-12-27T19:14:55.535Z,6.00
2022-12-27T19:20:06.406Z,5.80
2022-12-27T19:25:28.528Z,5.62
2022-12-27T19:30:41.287Z,5.36
2022-12-27T19:35:43.452Z,5.28
2022-12-27T19:40:47.971Z,5.28
2022-12-27T19:45:49.490Z,5.06
2022-12-27T19:50:53.697Z,4.77
2022-12-27T19:55:55.201Z,4.72
2022-12-27T20:00:57.659Z,4.65
2022-12-27T20:06:14.034Z,4.69
2022-12-27T20:11:22.741Z,4.67
2022-12-27T20:16:24.326Z,4.57
2022-12-27T20:21:25.825Z,4.39
2022-12-27T20:26:27.444Z,4.37
2022-12-27T20:31:28.937Z,4.20
2022-12-27T20:36:30.543Z,4.06
2022-12-27T20:41:32.005Z,3.98
2022-12-27T20:46:33.478Z,3.81
2022-12-27T20:51:34.951Z,4.04
2022-12-27T20:56:36.425Z,4.05
2022-12-27T21:01:38.008Z,4.06
2022-12-27T21:06:40.509Z,4.08
2022-12-27T21:11:41.947Z,3.97
2022-12-27T21:16:43.448Z,3.73
2022-12-27T21:21:44.883Z,3.86
2022-12-27T21:26:46.317Z,3.82
2022-12-27T21:31:47.815Z,3.95
2022-12-27T21:36:51.430Z,4.12
2022-12-27T21:41:52.907Z,4.28
2022-12-27T21:46:54.356Z,4.30
2022-12-27T21:51:55.867Z,4.70
2022-12-27T21:56:57.315Z,4.81
2022-12-27T22:01:58.832Z,4.56
2022-12-27T22:07:00.388Z,4.06
2022-12-27T22:12:01.912Z,3.93
2022-12-27T22:17:03.344Z,3.61
2022-12-27T22:22:04.905Z,3.40
2022-12-27T22:27:06.362Z,3.48
2022-12-27T22:32:07.879Z,3.68
2022-12-27T22:37:09.326Z,3.97
2022-12-27T22:42:10.880Z,4.02
2022-12-27T22:47:28.516Z,3.67
2022-12-27T22:52:30.226Z,3.91
2022-12-27T22:57:31.801Z,3.59
2022-12-27T23:02:33.292Z,3.85
2022-12-27T23:08:03.529Z,4.10
2022-12-27T23:12:56.936Z,4.10
2022-12-27T23:17:58.350Z,3.98
2022-12-27T23:22:59.792Z,4.20
2022-12-27T23:28:01.258Z,4.44
2022-12-27T23:33:02.782Z,4.40
2022-12-27T23:38:04.319Z,4.32
2022-12-27T23:43:33.321Z,4.01
2022-12-27T23:48:27.188Z,3.98
2022-12-27T23:53:28.731Z,4.43
2022-12-27T23:58:30.256Z,4.77
